NCAR-RAP Real-Time Weather Data

Output produced by METARs form (21 May 2019  11:00 UTC)
found at http://weather.rap.ucar.edu/surface/
 
RJBT 210900Z 36004KT 9999 FEW040 BKN/// 18/06 Q1005
RJBT 210800Z 36007KT 320V020 9999 FEW040 BKN/// 19/04 Q1005
RJBT 210700Z 02008KT 330V060 9999 FEW040 BKN/// 20/04 Q1004
RJBT 210600Z 36008KT 330V050 9999 FEW030 BKN/// 21/05 Q1004
RJBT 210500Z 36010KT 330V040 9999 FEW030 BKN/// 21/04 Q1004
RJBT 210400Z 01008KT 320V060 9999 FEW030 SCT/// 21/06 Q1004
RJBT 210300Z 35008KT 270V060 9999 FEW025 SCT040 21/07 Q1005
RJBT 210200Z 31007KT 260V360 9999 FEW020 BKN040 19/18 Q1005
RJBT 210100Z 36006KT 310V050 9999 FEW020 BKN035 19/15 Q1005
RJBT 210000Z 35005KT 300V060 9999 FEW020 SCT030 BKN/// 18/18 Q1005
RJBT 202330Z 33006KT 280V050 9999 FEW020 BKN/// 18/18 Q1005
RJBT 200900Z 16011KT 110V190 9999 FEW015 SCT025 BKN035 19/19 Q1003
RJBT 200800Z 17012G23KT 9999 FEW020 SCT025 BKN035 21/21 Q1004
RJBT 200700Z 18011KT 140V210 9999 FEW025 SCT030 BKN120 21/21 Q1004
RJBT 200600Z 18012G23KT 140V210 9999 -SHRA FEW025 SCT030 BKN120 20/20 Q1004
RJBT 200500Z 17013KT 140V200 9999 -SHRA FEW030 SCT040 BKN120 22/13 Q1005
RJBT 200400Z 17015KT 130V200 9999 FEW030 SCT040 BKN140 23/12 Q1005
RJBT 200300Z 17018G31KT 130V190 9999 -SHRA FEW030 SCT035 BKN140 23/12 Q1006
RJBT 200200Z 17015KT 120V210 9999 -SHRA FEW030 SCT035 BKN120 22/12 Q1007
RJBT 200100Z 16013KT 130V190 9999 FEW030 SCT120 BKN/// 24/12 Q1007
RJBT 200000Z 16015KT 130V220 9999 FEW030 BKN/// 24/12 Q1008
RJBT 192330Z 17016KT 9999 FEW025 BKN/// 22/11 Q1008
RJBT 190900Z 17009KT 120V190 9999 FEW025 SCT035 BKN/// 22/11 Q1014
RJBT 190800Z 15009KT 110V190 9999 FEW025 SCT035 BKN/// 22/10 Q1014
RJBT 190700Z 16010KT 110V190 9999 FEW025 SCT035 BKN/// 24/10 Q1014
RJBT 190600Z 15015KT 120V190 9999 FEW030 BKN/// 25/10 Q1014
RJBT 190500Z 14013G23KT 050V190 9999 FEW030 SCT050 BKN/// 27/11 Q1014
RJBT 190400Z 16013KT 140V200 9999 FEW030 SCT050 BKN/// 25/10 Q1015
RJBT 190300Z 16014G24KT 140V200 9999 FEW030 SCT045 BKN/// 25/10 Q1015
RJBT 190200Z 17013KT 140V220 9999 FEW030 BKN/// 24/10 Q1015
RJBT 190100Z 16013KT 9999 FEW030 BKN/// 24/10 Q1016
RJBT 190000Z 16011KT 9999 FEW030 BKN/// 22/10 Q1017
RJBT 182330Z 17011KT 140V200 9999 FEW030 BKN/// 21/10 Q1017